CDT,Max TemperatureF,Mean TemperatureF,Min TemperatureF,Max Dew PointF,MeanDew PointF,Min DewpointF,Max Humidity, Mean Humidity, Min Humidity, Max Sea Level PressureIn, Mean Sea Level PressureIn, Min Sea Level PressureIn, Max VisibilityMiles, Mean VisibilityMiles, Min VisibilityMiles, Max Wind SpeedMPH, Mean Wind SpeedMPH, Max Gust SpeedMPH,PrecipitationIn, CloudCover, Events, WindDirDegrees
2013-5-1,84,70,53,55,47,36,67,43,18,30.15,30.03,29.91,10,10,7,18,8,28,0.00,1,,191
2013-5-2,53,46,39,43,38,36,93,73,58,30.29,30.21,30.14,10,9,2,25,14,34,0.30,6,Rain,341
2013-5-3,46,42,37,45,37,34,93,88,81,30.18,29.99,29.83,10,8,0,20,14,29,3.20,8,Rain,351
2013-5-4,59,52,46,54,50,45,100,89,77,30.04,29.93,29.80,10,9,1,13,7,17,0.18,8,Rain,118
2013-5-5,73,60,48,57,52,46,100,76,44,30.05,30.00,29.95,10,8,0,16,5,21,0.00,4,Fog-Rain,356
2013-5-6,73,62,51,54,50,45,88,62,36,30.06,30.02,29.99,10,10,10,14,4,20,0.00,4,,353
2013-5-7,78,66,53,52,42,34,82,44,20,30.07,30.03,29.99,10,10,10,7,2,,0.00,0,,49
2013-5-8,80,68,57,57,47,39,73,47,23,30.05,30.00,29.97,10,10,10,8,1,9,0.00,2,,191
2013-5-9,69,64,60,63,60,54,94,84,64,29.97,29.88,29.81,10,9,2,14,5,26,0.79,6,Rain,186
2013-5-10,60,55,50,59,51,46,94,85,77,30.02,29.95,29.84,10,9,2,15,8,20,0.00,7,,324
2013-5-11,60,52,44,50,35,21,94,57,25,30.17,30.06,29.97,10,9,4,28,10,39,0.00,1,,289
2013-5-12,60,48,37,30,25,21,70,40,23,30.25,30.19,30.14,10,10,10,17,8,22,0.00,0,,299
2013-5-13,71,56,42,41,32,25,61,39,23,30.19,30.11,29.96,10,10,10,13,5,21,0.00,0,,197
2013-5-14,89,73,57,57,51,41,68,45,25,29.94,29.80,29.70,10,10,10,18,11,25,0.00,0,,206
2013-5-15,82,74,66,55,50,37,64,42,20,29.88,29.85,29.77,10,10,10,18,9,24,0.00,0,,256
2013-5-16,82,72,62,63,59,52,94,68,39,29.94,29.90,29.84,10,10,5,15,4,23,0.14,3,Rain,135
2013-5-17,82,71,60,64,58,52,83,64,37,29.98,29.95,29.90,10,10,10,9,4,,0.00,3,,172
2013-5-18,84,74,64,66,62,57,94,70,42,30.01,29.95,29.87,10,8,2,12,5,,0.00,3,,144
2013-5-19,86,75,64,72,65,61,94,78,58,29.89,29.78,29.65,10,8,1,25,10,45,1.28,4,Rain,144
2013-5-20,80,71,62,64,60,55,94,73,42,29.79,29.72,29.60,10,10,2,20,10,31,0.44,2,Rain,190
2013-5-21,77,70,62,63,58,54,94,71,47,29.73,29.70,29.67,10,10,10,16,9,22,0.00,2,,207
2013-5-22,68,62,57,59,55,52,94,74,60,29.85,29.74,29.66,10,10,4,13,6,20,0.00,7,Rain,260
2013-5-23,69,62,55,55,50,45,94,72,40,30.26,30.06,29.85,10,9,1,18,9,24,0.03,5,,348
2013-5-24,69,58,48,50,43,36,94,60,28,30.43,30.34,30.27,10,9,2,10,4,16,0.00,1,,119
2013-5-25,60,56,51,52,47,39,94,75,45,30.39,30.26,30.20,10,10,3,17,9,25,0.89,7,Rain,114
2013-5-26,68,60,53,63,55,48,94,85,77,30.22,30.12,30.00,10,10,2,17,11,26,0.63,7,Rain,106
2013-5-27,73,68,62,64,62,57,94,87,73,29.99,29.88,29.76,10,8,2,18,8,25,0.50,5,Rain,138
2013-5-28,78,71,64,72,66,61,94,83,69,29.92,29.78,29.72,10,10,3,20,10,41,0.51,6,Rain,201
2013-5-29,84,73,62,70,64,59,94,74,42,29.95,29.85,29.77,10,10,3,17,9,26,0.63,2,Rain,165
2013-5-30,80,71,62,70,64,61,94,79,58,29.83,29.78,29.69,10,10,1,21,11,58,1.26,4,Rain,167
2013-5-31,75,70,64,68,63,57,94,85,73,29.88,29.77,29.71,10,10,5,23,9,30,0.00,4,Rain,175